createdAt,value
2022-11-25T00:00:14.901Z,4.20
2022-11-25T00:02:44.535Z,4.07
2022-11-25T00:05:13.565Z,5.20
2022-11-25T00:07:41.362Z,13.87
2022-11-25T00:10:09.301Z,15.20
2022-11-25T00:12:36.825Z,13.70
2022-11-25T00:15:05.131Z,10.77
2022-11-25T00:17:32.694Z,6.97
2022-11-25T00:20:01.621Z,6.53
2022-11-25T00:22:30.576Z,6.70
2022-11-25T00:24:58.179Z,5.83
2022-11-25T00:27:25.848Z,5.03
2022-11-25T00:29:53.369Z,4.60
2022-11-25T00:32:20.972Z,4.70
2022-11-25T00:34:48.616Z,4.33
2022-11-25T00:37:16.219Z,4.40
2022-11-25T00:39:45.095Z,4.30
2022-11-25T00:42:30.009Z,3.63
2022-11-25T00:44:57.657Z,3.83
2022-11-25T00:47:25.263Z,3.60
2022-11-25T00:49:54.967Z,3.23
2022-11-25T00:52:23.842Z,4.87
2022-11-25T00:54:53.515Z,3.40
2022-11-25T00:57:22.939Z,3.97
2022-11-25T00:59:50.589Z,3.77
2022-11-25T01:02:19.903Z,3.57
2022-11-25T01:04:47.657Z,3.40
2022-11-25T01:07:15.653Z,4.17
2022-11-25T01:09:43.248Z,4.17
2022-11-25T01:12:12.521Z,3.30
2022-11-25T01:14:40.431Z,2.97
2022-11-25T01:17:08.064Z,3.50
2022-11-25T01:19:39.899Z,3.37
2022-11-25T01:22:07.945Z,3.10
2022-11-25T01:24:36.349Z,2.73
2022-11-25T01:27:04.049Z,2.60
2022-11-25T01:29:33.233Z,2.93
2022-11-25T01:32:00.978Z,3.33
2022-11-25T01:34:31.944Z,2.60
2022-11-25T01:36:59.864Z,3.10
2022-11-25T01:39:32.541Z,3.20
2022-11-25T01:42:00.683Z,2.23
2022-11-25T01:44:29.570Z,2.90
2022-11-25T01:47:02.921Z,2.97
2022-11-25T01:49:34.955Z,3.87
2022-11-25T01:52:06.108Z,4.07
2022-11-25T01:54:37.217Z,4.80
2022-11-25T01:57:08.819Z,4.80
2022-11-25T01:59:38.781Z,4.57
2022-11-25T02:02:09.625Z,5.37
2022-11-25T02:04:39.381Z,4.97
2022-11-25T02:07:11.042Z,5.13
2022-11-25T02:09:40.616Z,5.13
2022-11-25T02:12:08.640Z,4.73
2022-11-25T02:14:36.634Z,4.57
2022-11-25T02:17:04.429Z,4.83
2022-11-25T02:19:43.407Z,5.63
2022-11-25T02:22:13.657Z,4.93
2022-11-25T02:24:44.842Z,4.60
2022-11-25T02:27:14.269Z,4.57
2022-11-25T02:29:41.994Z,5.50
2022-11-25T02:32:09.573Z,4.67
2022-11-25T02:34:37.294Z,4.67
2022-11-25T02:37:04.965Z,4.47
2022-11-25T02:39:32.556Z,4.90
2022-11-25T02:42:01.294Z,4.87
2022-11-25T02:44:30.183Z,4.40
2022-11-25T02:46:57.808Z,5.13
2022-11-25T02:49:25.385Z,4.00
2022-11-25T02:51:53.063Z,4.47
2022-11-25T02:54:20.798Z,4.27
2022-11-25T02:56:48.382Z,4.53
2022-11-25T02:59:15.989Z,3.93
2022-11-25T03:01:44.987Z,4.30
2022-11-25T03:04:12.846Z,3.97
2022-11-25T03:06:40.518Z,4.07
2022-11-25T03:09:08.434Z,4.87
2022-11-25T03:11:53.839Z,4.47
2022-11-25T03:14:21.468Z,5.73
2022-11-25T03:16:50.531Z,7.03
2022-11-25T03:19:18.245Z,4.73
2022-11-25T03:21:45.789Z,5.00
2022-11-25T03:24:13.393Z,4.87
2022-11-25T03:26:40.968Z,5.57
2022-11-25T03:29:08.637Z,6.40
2022-11-25T03:31:36.287Z,5.30
2022-11-25T03:34:05.241Z,5.33
2022-11-25T03:36:32.849Z,5.60
2022-11-25T03:39:00.498Z,5.73
2022-11-25T03:41:28.100Z,5.83
2022-11-25T03:43:55.756Z,6.03
2022-11-25T03:46:23.450Z,4.73
2022-11-25T03:48:51.194Z,5.77
2022-11-25T03:51:20.136Z,6.63
2022-11-25T03:53:47.776Z,5.40
2022-11-25T03:56:15.485Z,5.53
2022-11-25T03:58:43.060Z,6.20
2022-11-25T04:01:10.847Z,5.43
2022-11-25T04:03:38.486Z,5.77
2022-11-25T04:06:06.154Z,5.57
2022-11-25T04:08:35.124Z,5.90
2022-11-25T04:11:02.725Z,6.23
2022-11-25T04:13:29.632Z,5.53
2022-11-25T04:15:57.661Z,7.20
2022-11-25T04:18:25.255Z,6.70
2022-11-25T04:20:52.980Z,6.87
2022-11-25T04:23:20.576Z,7.27
2022-11-25T04:25:51.928Z,7.43
2022-11-25T04:28:19.511Z,7.77
2022-11-25T04:30:47.151Z,6.67
2022-11-25T04:33:14.759Z,7.53
2022-11-25T04:35:42.352Z,8.00
2022-11-25T04:38:09.931Z,7.00
2022-11-25T04:40:37.547Z,8.43
2022-11-25T04:43:10.557Z,7.93
2022-11-25T04:46:06.503Z,6.73
2022-11-25T04:48:25.995Z,7.70
2022-11-25T04:50:53.618Z,6.97
2022-11-25T04:53:21.203Z,6.77
2022-11-25T04:55:49.064Z,6.70
2022-11-25T04:58:38.643Z,6.90
2022-11-25T05:01:05.381Z,7.63
2022-11-25T05:03:33.002Z,6.60
2022-11-25T05:06:00.647Z,7.03
2022-11-25T05:08:28.269Z,7.13
2022-11-25T05:10:55.995Z,6.87
2022-11-25T05:13:24.972Z,7.50
2022-11-25T05:15:52.547Z,6.30
2022-11-25T05:18:20.161Z,6.47
2022-11-25T05:20:47.755Z,7.77
2022-11-25T05:23:15.365Z,7.17
2022-11-25T05:25:42.927Z,7.43
2022-11-25T05:28:10.538Z,8.07
2022-11-25T05:30:39.564Z,7.33
2022-11-25T05:33:07.141Z,7.37
2022-11-25T05:35:34.722Z,6.83
2022-11-25T05:38:04.039Z,7.10
2022-11-25T05:40:32.628Z,7.07
2022-11-25T05:43:01.871Z,6.97
2022-11-25T05:45:29.537Z,7.97
2022-11-25T05:47:58.471Z,7.13
2022-11-25T05:50:26.097Z,7.80
2022-11-25T05:52:53.668Z,7.20
2022-11-25T05:55:21.259Z,8.90
2022-11-25T05:57:48.922Z,9.17
2022-11-25T06:00:16.901Z,9.43
2022-11-25T06:02:44.653Z,9.13
2022-11-25T06:05:13.638Z,10.83
2022-11-25T06:07:41.279Z,11.57
2022-11-25T06:10:09.858Z,11.70
2022-11-25T06:12:37.499Z,11.97
2022-11-25T06:15:05.938Z,10.93
2022-11-25T06:17:33.543Z,10.83
2022-11-25T06:20:01.168Z,10.90
2022-11-25T06:22:30.081Z,10.80
2022-11-25T06:25:02.994Z,11.37
2022-11-25T06:27:50.133Z,9.30
2022-11-25T06:30:19.741Z,9.97
2022-11-25T06:32:47.381Z,9.47
2022-11-25T06:35:15.001Z,9.33
2022-11-25T06:37:43.973Z,9.80
2022-11-25T06:40:12.470Z,9.73
2022-11-25T06:42:40.385Z,8.77
2022-11-25T06:45:09.172Z,8.93
2022-11-25T06:47:36.766Z,8.13
2022-11-25T06:50:04.721Z,9.00
2022-11-25T06:52:32.424Z,8.30
2022-11-25T06:55:01.338Z,8.93
2022-11-25T06:57:28.940Z,8.60
2022-11-25T06:59:56.496Z,8.50
2022-11-25T07:02:24.110Z,8.23
2022-11-25T07:04:51.711Z,8.40
2022-11-25T07:07:19.533Z,9.23
2022-11-25T07:09:47.550Z,9.17
2022-11-25T07:12:16.597Z,9.37
2022-11-25T07:14:44.150Z,8.97
2022-11-25T07:17:12.439Z,9.03
2022-11-25T07:19:40.377Z,8.50
2022-11-25T07:22:07.973Z,7.87
2022-11-25T07:24:35.734Z,8.60
2022-11-25T07:27:05.865Z,8.40
2022-11-25T07:30:10.134Z,8.20
2022-11-25T07:32:23.914Z,8.33
2022-11-25T07:34:51.995Z,8.20
2022-11-25T07:37:19.644Z,7.93
2022-11-25T07:39:47.253Z,8.00
2022-11-25T07:42:14.973Z,7.33
2022-11-25T07:44:43.935Z,7.90
2022-11-25T07:47:11.524Z,8.33
2022-11-25T07:49:39.355Z,7.93
2022-11-25T07:52:07.015Z,8.47
2022-11-25T07:54:34.604Z,9.00
2022-11-25T07:57:02.209Z,8.57
2022-11-25T07:59:29.829Z,11.90
2022-11-25T08:01:58.784Z,13.60
2022-11-25T08:04:26.393Z,12.33
2022-11-25T08:06:54.221Z,8.40
2022-11-25T08:09:23.694Z,8.50
2022-11-25T08:11:51.889Z,8.23
2022-11-25T08:14:19.671Z,8.03
2022-11-25T08:16:47.571Z,7.97
2022-11-25T08:19:17.962Z,8.07
2022-11-25T08:21:47.711Z,8.80
2022-11-25T08:24:16.657Z,7.80
2022-11-25T08:26:44.219Z,7.53
2022-11-25T08:29:14.421Z,7.53
2022-11-25T08:31:42.926Z,8.87
2022-11-25T08:34:19.217Z,9.80
2022-11-25T08:36:48.728Z,9.83
2022-11-25T08:39:36.367Z,11.23
2022-11-25T08:42:05.316Z,9.73
2022-11-25T08:44:32.946Z,9.23
2022-11-25T08:47:00.769Z,8.63
2022-11-25T08:49:34.970Z,8.97
2022-11-25T08:52:07.969Z,8.57
2022-11-25T08:54:35.571Z,6.47
2022-11-25T08:57:03.207Z,6.80
2022-11-25T08:59:30.765Z,6.50
2022-11-25T09:01:58.381Z,6.70
2022-11-25T09:04:25.969Z,5.70
2022-11-25T09:06:54.936Z,6.67
2022-11-25T09:09:22.510Z,7.10
2022-11-25T09:11:50.186Z,7.13
2022-11-25T09:14:17.850Z,6.70
2022-11-25T09:16:45.487Z,6.90
2022-11-25T09:19:13.100Z,7.03
2022-11-25T09:21:40.662Z,9.50
2022-11-25T09:24:10.210Z,10.47
2022-11-25T09:26:40.957Z,9.63
2022-11-25T09:29:08.665Z,9.23
2022-11-25T09:31:36.440Z,9.40
2022-11-25T09:34:04.106Z,13.03
2022-11-25T09:36:31.841Z,9.50
2022-11-25T09:38:59.423Z,9.47
2022-11-25T09:42:00.963Z,8.93
2022-11-25T09:44:56.831Z,9.67
2022-11-25T09:47:29.276Z,8.77
2022-11-25T09:50:06.555Z,9.53
2022-11-25T09:52:38.511Z,9.43
2022-11-25T09:55:08.497Z,8.17
2022-11-25T09:57:52.879Z,8.53
2022-11-25T10:00:24.518Z,7.97
2022-11-25T10:03:01.034Z,7.50
2022-11-25T10:05:30.672Z,8.10
2022-11-25T10:08:00.880Z,8.27
2022-11-25T10:10:31.782Z,8.10
2022-11-25T10:13:00.923Z,7.50
2022-11-25T10:15:31.554Z,8.57
2022-11-25T10:18:01.587Z,8.67
2022-11-25T10:20:32.728Z,8.80
2022-11-25T10:23:02.275Z,10.17
2022-11-25T10:25:32.936Z,9.63
2022-11-25T10:28:03.245Z,8.83
2022-11-25T10:30:35.850Z,8.07
2022-11-25T10:33:06.634Z,7.77
2022-11-25T10:35:39.462Z,7.13
2022-11-25T10:38:17.405Z,6.37
2022-11-25T10:40:48.505Z,5.20
2022-11-25T10:43:17.502Z,5.37
2022-11-25T10:45:49.151Z,5.30
2022-11-25T10:48:26.769Z,5.50
2022-11-25T10:51:04.957Z,5.03
2022-11-25T10:53:32.701Z,5.13
2022-11-25T10:56:03.521Z,5.80
2022-11-25T10:58:35.572Z,5.73
2022-11-25T11:01:05.660Z,7.07
2022-11-25T11:03:33.323Z,6.30
2022-11-25T11:06:00.896Z,6.60
2022-11-25T11:08:30.414Z,6.20
2022-11-25T11:11:21.229Z,5.60
2022-11-25T11:13:51.541Z,5.73
2022-11-25T11:16:28.067Z,5.90
2022-11-25T11:18:56.230Z,5.53
2022-11-25T11:21:26.350Z,6.27
2022-11-25T11:23:57.007Z,5.83
2022-11-25T11:26:26.592Z,5.90
2022-11-25T11:29:09.750Z,5.87
2022-11-25T11:31:44.784Z,5.47
2022-11-25T11:34:30.478Z,5.33
2022-11-25T11:37:13.659Z,5.73
2022-11-25T11:40:13.917Z,4.60
2022-11-25T11:42:51.318Z,5.67
2022-11-25T11:45:33.695Z,5.40
2022-11-25T11:48:10.870Z,5.13
2022-11-25T11:50:41.234Z,5.10
2022-11-25T11:53:12.559Z,5.13
2022-11-25T11:56:26.824Z,5.13
2022-11-25T11:58:51.193Z,6.03
2022-11-25T12:01:32.225Z,4.37
2022-11-25T12:04:02.172Z,4.10
2022-11-25T12:06:33.088Z,4.97
2022-11-25T12:09:02.885Z,4.60
2022-11-25T12:11:33.665Z,4.60
2022-11-25T12:14:05.319Z,4.50
2022-11-25T12:16:37.476Z,4.80
2022-11-25T12:19:14.051Z,4.40
2022-11-25T12:21:47.489Z,4.10
2022-11-25T12:24:19.922Z,4.50
2022-11-25T12:26:51.967Z,5.10
2022-11-25T12:29:27.136Z,5.30
2022-11-25T12:31:59.943Z,5.93
2022-11-25T12:34:33.606Z,6.93
2022-11-25T12:37:09.507Z,5.07
2022-11-25T12:39:43.827Z,4.00
2022-11-25T12:42:15.443Z,4.10
2022-11-25T12:45:03.527Z,3.97
2022-11-25T12:47:32.912Z,3.47
2022-11-25T12:50:00.685Z,3.40
2022-11-25T12:52:39.266Z,4.13
2022-11-25T12:55:13.345Z,3.90
2022-11-25T12:58:10.129Z,4.03
2022-11-25T13:00:54.744Z,3.70
2022-11-25T13:03:36.229Z,3.80
2022-11-25T13:06:47.868Z,3.77
2022-11-25T13:09:30.333Z,3.10
2022-11-25T13:12:22.983Z,2.73
2022-11-25T13:15:13.243Z,3.43
2022-11-25T13:17:43.037Z,3.20
2022-11-25T13:20:38.041Z,3.00
2022-11-25T13:23:10.287Z,2.70
2022-11-25T13:25:39.600Z,2.53
2022-11-25T13:28:31.080Z,2.60
2022-11-25T13:31:20.387Z,2.43
2022-11-25T13:34:25.459Z,3.03
2022-11-25T13:36:55.589Z,2.67
2022-11-25T13:39:31.423Z,2.60
2022-11-25T13:42:01.809Z,2.70
2022-11-25T13:44:32.610Z,2.87
2022-11-25T13:47:21.799Z,2.57
2022-11-25T13:49:54.038Z,2.60
2022-11-25T13:52:34.619Z,2.93
2022-11-25T13:55:05.878Z,2.77
2022-11-25T13:57:35.367Z,2.80
2022-11-25T14:00:06.826Z,3.53
2022-11-25T14:02:38.249Z,3.30
2022-11-25T14:05:20.807Z,2.33
2022-11-25T14:07:57.192Z,2.60
2022-11-25T14:10:44.944Z,2.17
2022-11-25T14:13:25.734Z,2.73
2022-11-25T14:16:07.089Z,2.67
2022-11-25T14:19:21.823Z,2.77
2022-11-25T14:21:45.492Z,2.67
2022-11-25T14:24:24.726Z,3.40
2022-11-25T14:26:52.890Z,3.10
2022-11-25T14:29:23.235Z,2.73
2022-11-25T14:31:53.265Z,2.50
2022-11-25T14:34:23.951Z,2.50
2022-11-25T14:36:54.759Z,3.30
2022-11-25T14:39:27.338Z,2.23
2022-11-25T14:42:00.415Z,2.63
2022-11-25T14:44:31.310Z,2.27
2022-11-25T14:46:59.862Z,2.27
2022-11-25T14:50:05.277Z,2.10
2022-11-25T14:52:37.345Z,2.57
2022-11-25T14:55:07.462Z,2.57
2022-11-25T14:57:37.195Z,2.97
2022-11-25T15:00:07.881Z,2.67
2022-11-25T15:02:40.322Z,2.37
2022-11-25T15:05:17.366Z,2.43
2022-11-25T15:07:54.973Z,3.40
2022-11-25T15:10:51.734Z,4.67
2022-11-25T15:13:28.357Z,4.63
2022-11-25T15:15:56.701Z,4.20
2022-11-25T15:18:25.185Z,4.00
2022-11-25T15:20:57.005Z,4.07
2022-11-25T15:23:28.409Z,4.90
2022-11-25T15:25:57.779Z,5.37
2022-11-25T15:28:25.401Z,5.13
2022-11-25T15:30:58.234Z,3.97
2022-11-25T15:33:26.831Z,3.03
2022-11-25T15:35:54.654Z,2.87
2022-11-25T15:38:36.554Z,3.20
2022-11-25T15:41:06.253Z,3.00
2022-11-25T15:43:35.725Z,2.47
2022-11-25T15:46:04.952Z,2.10
2022-11-25T15:48:35.322Z,3.13
2022-11-25T15:51:04.859Z,2.77
2022-11-25T15:53:36.885Z,2.30
2022-11-25T15:56:07.801Z,3.00
2022-11-25T15:58:35.787Z,2.50
2022-11-25T16:01:04.851Z,2.73
2022-11-25T16:03:32.858Z,3.13
2022-11-25T16:06:01.381Z,3.20
2022-11-25T16:08:32.568Z,2.50
2022-11-25T16:11:01.528Z,3.47
2022-11-25T16:13:33.355Z,3.77
2022-11-25T16:16:16.996Z,3.30
2022-11-25T16:18:53.491Z,4.20
2022-11-25T16:21:23.290Z,3.67
2022-11-25T16:23:53.353Z,4.33
2022-11-25T16:26:25.377Z,3.40
2022-11-25T16:28:56.653Z,3.37
2022-11-25T16:31:25.420Z,3.07
2022-11-25T16:33:54.323Z,2.67
2022-11-25T16:36:21.872Z,4.27
2022-11-25T16:38:52.928Z,3.63
2022-11-25T16:41:22.243Z,3.53
2022-11-25T16:43:49.842Z,7.50
2022-11-25T16:46:20.209Z,5.83
2022-11-25T16:48:48.489Z,3.47
2022-11-25T16:51:17.101Z,3.50
2022-11-25T16:53:44.941Z,3.10
2022-11-25T16:56:17.562Z,3.30
2022-11-25T16:58:45.503Z,3.30
2022-11-25T17:01:15.546Z,3.30
2022-11-25T17:03:44.945Z,2.57
2022-11-25T17:06:21.470Z,2.27
2022-11-25T17:08:49.785Z,2.83
2022-11-25T17:11:20.130Z,2.90
2022-11-25T17:13:50.392Z,2.57
2022-11-25T17:16:19.951Z,2.47
2022-11-25T17:18:50.004Z,3.40
2022-11-25T17:21:18.604Z,3.20
2022-11-25T17:23:49.177Z,3.40
2022-11-25T17:26:20.754Z,4.10
2022-11-25T17:28:51.594Z,4.17
2022-11-25T17:31:19.278Z,4.77
2022-11-25T17:33:49.115Z,2.93
2022-11-25T17:36:16.714Z,2.30
2022-11-25T17:38:44.375Z,2.37
2022-11-25T17:41:13.293Z,2.30
2022-11-25T17:43:41.136Z,3.23
2022-11-25T17:46:12.137Z,2.90
2022-11-25T17:48:42.267Z,3.00
2022-11-25T17:51:12.141Z,3.33
2022-11-25T17:53:40.635Z,2.83
2022-11-25T17:56:18.804Z,2.80
2022-11-25T17:58:46.597Z,3.80
2022-11-25T18:01:15.410Z,3.33
2022-11-25T18:03:43.056Z,2.67
2022-11-25T18:06:12.110Z,3.53
2022-11-25T18:08:39.697Z,2.77
2022-11-25T18:11:08.108Z,3.80
2022-11-25T18:13:38.025Z,2.77
2022-11-25T18:16:06.440Z,2.70
2022-11-25T18:18:34.085Z,2.93
2022-11-25T18:21:01.882Z,2.80
2022-11-25T18:23:30.836Z,2.70
2022-11-25T18:26:02.119Z,6.03
2022-11-25T18:28:31.842Z,2.97
2022-11-25T18:31:03.322Z,3.10
2022-11-25T18:33:31.450Z,3.50
2022-11-25T18:35:59.627Z,3.00
2022-11-25T18:38:27.190Z,2.70
2022-11-25T18:40:56.215Z,2.60
2022-11-25T18:43:25.658Z,2.70
2022-11-25T18:45:54.291Z,2.63
2022-11-25T18:48:23.674Z,2.93
2022-11-25T18:50:52.639Z,3.40
2022-11-25T18:53:20.178Z,3.30
2022-11-25T18:55:48.970Z,2.57
2022-11-25T18:58:19.486Z,3.03
2022-11-25T19:00:49.363Z,3.30
2022-11-25T19:03:19.873Z,3.07
2022-11-25T19:05:47.937Z,3.23
2022-11-25T19:08:15.688Z,3.70
2022-11-25T19:10:45.118Z,4.87
2022-11-25T19:13:15.971Z,2.80
2022-11-25T19:15:45.896Z,2.53
2022-11-25T19:18:16.317Z,2.80
2022-11-25T19:20:43.875Z,2.73
2022-11-25T19:23:18.432Z,3.77
2022-11-25T19:25:46.274Z,3.60
2022-11-25T19:28:14.692Z,2.77
2022-11-25T19:30:42.345Z,3.40
2022-11-25T19:33:16.770Z,2.90
2022-11-25T19:35:44.423Z,3.13
2022-11-25T19:38:14.971Z,3.33
2022-11-25T19:40:42.580Z,3.90
2022-11-25T19:43:10.180Z,4.20
2022-11-25T19:45:38.253Z,3.90
2022-11-25T19:48:08.393Z,3.93
2022-11-25T19:50:39.251Z,3.43
2022-11-25T19:53:07.444Z,2.97
2022-11-25T19:55:34.977Z,3.30
2022-11-25T19:58:02.542Z,3.73
2022-11-25T20:00:30.128Z,3.00
2022-11-25T20:02:57.719Z,3.10
2022-11-25T20:05:30.183Z,2.90
2022-11-25T20:07:59.244Z,3.97
2022-11-25T20:10:28.349Z,3.17
2022-11-25T20:12:57.196Z,2.97
2022-11-25T20:15:25.010Z,3.77
2022-11-25T20:17:54.694Z,3.37
2022-11-25T20:20:26.479Z,3.27
2022-11-25T20:22:56.915Z,2.63
2022-11-25T20:25:26.411Z,3.07
2022-11-25T20:27:54.152Z,3.90
2022-11-25T20:30:23.327Z,3.23
2022-11-25T20:32:51.504Z,2.80
2022-11-25T20:35:19.663Z,3.50
2022-11-25T20:37:57.467Z,3.13
2022-11-25T20:40:32.248Z,4.20
2022-11-25T20:43:00.191Z,4.80
2022-11-25T20:45:27.824Z,4.80
2022-11-25T20:47:55.477Z,3.80
2022-11-25T20:50:23.626Z,4.33
2022-11-25T20:52:51.441Z,4.37
2022-11-25T20:55:21.224Z,3.93
2022-11-25T20:57:51.887Z,5.27
2022-11-25T21:00:21.660Z,6.40
2022-11-25T21:02:49.853Z,6.83
2022-11-25T21:05:18.265Z,6.03
2022-11-25T21:07:46.798Z,7.00
2022-11-25T21:10:23.911Z,13.73
2022-11-25T21:12:53.171Z,18.23
2022-11-25T21:15:22.389Z,16.47
2022-11-25T21:17:50.168Z,14.80
2022-11-25T21:20:19.232Z,11.20
2022-11-25T21:22:48.484Z,13.50
2022-11-25T21:25:17.792Z,8.80
2022-11-25T21:27:46.075Z,8.77
2022-11-25T21:30:20.148Z,4.50
2022-11-25T21:32:47.859Z,3.70
2022-11-25T21:35:16.506Z,3.00
2022-11-25T21:37:44.897Z,3.57
2022-11-25T21:40:25.348Z,3.20
2022-11-25T21:42:53.150Z,3.23
2022-11-25T21:45:22.293Z,3.43
2022-11-25T21:47:50.124Z,3.20
2022-11-25T21:50:19.646Z,3.67
2022-11-25T21:52:47.333Z,3.37
2022-11-25T21:55:16.220Z,3.87
2022-11-25T21:57:44.128Z,3.67
2022-11-25T22:00:21.549Z,3.40
2022-11-25T22:02:50.666Z,3.27
2022-11-25T22:05:20.415Z,3.20
2022-11-25T22:07:48.465Z,3.10
2022-11-25T22:10:17.453Z,3.63
2022-11-25T22:12:47.755Z,3.47
2022-11-25T22:15:17.897Z,3.30
2022-11-25T22:17:45.801Z,2.87
2022-11-25T22:20:26.693Z,2.77
2022-11-25T22:22:55.011Z,3.70
2022-11-25T22:25:23.243Z,3.93
2022-11-25T22:27:51.103Z,3.53
2022-11-25T22:30:20.953Z,3.57
2022-11-25T22:32:51.211Z,3.30
2022-11-25T22:35:21.888Z,3.27
2022-11-25T22:37:54.941Z,3.00
2022-11-25T22:40:23.983Z,3.10
2022-11-25T22:42:53.327Z,3.13
2022-11-25T22:45:27.439Z,2.83
2022-11-25T22:47:55.219Z,3.63
2022-11-25T22:50:26.079Z,3.50
2022-11-25T22:52:55.128Z,3.07
2022-11-25T22:55:25.011Z,3.57
2022-11-25T22:57:54.509Z,3.47
2022-11-25T23:00:24.552Z,3.93
2022-11-25T23:02:56.493Z,3.73
2022-11-25T23:05:32.165Z,3.17
2022-11-25T23:08:00.781Z,3.57
2022-11-25T23:10:30.414Z,3.33
2022-11-25T23:12:58.166Z,3.67
2022-11-25T23:15:26.101Z,2.97
2022-11-25T23:17:56.235Z,3.70
2022-11-25T23:20:29.658Z,3.63
2022-11-25T23:22:57.904Z,4.13
2022-11-25T23:25:25.738Z,3.20
2022-11-25T23:27:53.399Z,3.30
2022-11-25T23:30:23.231Z,3.27
2022-11-25T23:32:52.742Z,3.93
2022-11-25T23:35:24.210Z,3.77
2022-11-25T23:37:55.435Z,4.03
2022-11-25T23:40:25.366Z,4.10
2022-11-25T23:42:55.365Z,4.07
2022-11-25T23:45:25.247Z,3.83
2022-11-25T23:47:54.072Z,3.60
2022-11-25T23:50:26.752Z,3.70
2022-11-25T23:52:57.721Z,3.43
2022-11-25T23:55:28.542Z,3.40
2022-11-25T23:57:56.478Z,4.00
